sensor_id;sensor_type;location;lat;lon;timestamp;pressure;altitude;pressure_sealevel;temperature;humidity
71424;BME280;59240;51.370;-0.486;2023-03-25T00:01:31;99917.38;;;8.63;100.00
71424;BME280;59240;51.370;-0.486;2023-03-25T00:04:01;99920.72;;;8.68;100.00
71424;BME280;59240;51.370;-0.486;2023-03-25T00:06:30;99909.59;;;8.63;100.00
71424;BME280;59240;51.370;-0.486;2023-03-25T00:09:00;99930.09;;;8.74;100.00
71424;BME280;59240;51.370;-0.486;2023-03-25T00:11:28;99913.91;;;8.64;100.00
71424;BME280;59240;51.370;-0.486;2023-03-25T00:13:55;99907.09;;;8.60;100.00
71424;BME280;59240;51.370;-0.486;2023-03-25T00:16:21;99913.16;;;8.61;100.00
71424;BME280;59240;51.370;-0.486;2023-03-25T00:18:51;99921.63;;;8.67;100.00
71424;BME280;59240;51.370;-0.486;2023-03-25T00:21:17;99915.69;;;8.62;100.00
71424;BME280;59240;51.370;-0.486;2023-03-25T00:23:44;99920.03;;;8.62;100.00
71424;BME280;59240;51.370;-0.486;2023-03-25T00:26:11;99908.00;;;8.59;100.00
71424;BME280;59240;51.370;-0.486;2023-03-25T00:28:38;99912.38;;;8.57;100.00
71424;BME280;59240;51.370;-0.486;2023-03-25T00:31:08;99928.50;;;8.68;100.00
71424;BME280;59240;51.370;-0.486;2023-03-25T00:33:37;99910.59;;;8.59;100.00
71424;BME280;59240;51.370;-0.486;2023-03-25T00:36:07;99926.00;;;8.65;100.00
71424;BME280;59240;51.370;-0.486;2023-03-25T00:38:35;99918.56;;;8.53;100.00
71424;BME280;59240;51.370;-0.486;2023-03-25T00:41:14;99927.06;;;8.58;100.00
71424;BME280;59240;51.370;-0.486;2023-03-25T00:43:43;99914.41;;;8.46;100.00
71424;BME280;59240;51.370;-0.486;2023-03-25T00:46:11;99916.28;;;8.41;100.00
71424;BME280;59240;51.370;-0.486;2023-03-25T00:48:38;99902.63;;;8.33;100.00
71424;BME280;59240;51.370;-0.486;2023-03-25T00:51:05;99900.09;;;8.31;100.00
71424;BME280;59240;51.370;-0.486;2023-03-25T00:53:36;99918.06;;;8.39;100.00
71424;BME280;59240;51.370;-0.486;2023-03-25T00:56:04;99920.00;;;8.31;100.00
71424;BME280;59240;51.370;-0.486;2023-03-25T00:58:31;99923.47;;;8.30;100.00
71424;BME280;59240;51.370;-0.486;2023-03-25T01:00:57;99909.94;;;8.18;100.00
71424;BME280;59240;51.370;-0.486;2023-03-25T01:03:25;99920.31;;;8.18;100.00
71424;BME280;59240;51.370;-0.486;2023-03-25T01:05:55;99922.06;;;8.16;100.00
71424;BME280;59240;51.370;-0.486;2023-03-25T01:08:23;99929.06;;;8.14;100.00
71424;BME280;59240;51.370;-0.486;2023-03-25T01:10:52;99934.19;;;8.17;100.00
71424;BME280;59240;51.370;-0.486;2023-03-25T01:13:20;99935.03;;;8.18;100.00
71424;BME280;59240;51.370;-0.486;2023-03-25T01:15:47;99939.38;;;8.16;100.00
71424;BME280;59240;51.370;-0.486;2023-03-25T01:18:15;99907.91;;;7.95;100.00
71424;BME280;59240;51.370;-0.486;2023-03-25T01:20:41;99927.50;;;8.07;100.00
71424;BME280;59240;51.370;-0.486;2023-03-25T01:23:09;99896.81;;;7.90;100.00
71424;BME280;59240;51.370;-0.486;2023-03-25T01:25:36;99937.81;;;8.10;100.00
71424;BME280;59240;51.370;-0.486;2023-03-25T01:28:04;99925.19;;;7.97;100.00
71424;BME280;59240;51.370;-0.486;2023-03-25T01:30:31;99914.00;;;7.94;100.00
71424;BME280;59240;51.370;-0.486;2023-03-25T01:32:57;99939.53;;;8.11;100.00
71424;BME280;59240;51.370;-0.486;2023-03-25T01:35:24;99925.09;;;8.00;100.00
71424;BME280;59240;51.370;-0.486;2023-03-25T01:37:51;99922.56;;;7.98;100.00
71424;BME280;59240;51.370;-0.486;2023-03-25T01:40:21;99939.56;;;8.08;100.00
71424;BME280;59240;51.370;-0.486;2023-03-25T01:42:50;99917.38;;;7.98;100.00
71424;BME280;59240;51.370;-0.486;2023-03-25T01:45:38;99926.41;;;8.16;100.00
71424;BME280;59240;51.370;-0.486;2023-03-25T01:50:40;99911.94;;;8.07;100.00
71424;BME280;59240;51.370;-0.486;2023-03-25T01:53:09;99903.50;;;7.99;100.00
71424;BME280;59240;51.370;-0.486;2023-03-25T01:55:37;99928.13;;;8.17;100.00
71424;BME280;59240;51.370;-0.486;2023-03-25T01:58:08;99922.31;;;8.07;100.00
71424;BME280;59240;51.370;-0.486;2023-03-25T02:00:41;99927.59;;;8.04;100.00
71424;BME280;59240;51.370;-0.486;2023-03-25T02:03:10;99908.59;;;8.02;100.00
71424;BME280;59240;51.370;-0.486;2023-03-25T02:05:49;99941.97;;;8.16;100.00
71424;BME280;59240;51.370;-0.486;2023-03-25T02:08:19;99917.22;;;8.04;100.00
71424;BME280;59240;51.370;-0.486;2023-03-25T02:10:47;99936.09;;;8.09;100.00
71424;BME280;59240;51.370;-0.486;2023-03-25T02:13:14;99925.75;;;8.08;100.00
71424;BME280;59240;51.370;-0.486;2023-03-25T02:16:05;99926.59;;;8.08;100.00
71424;BME280;59240;51.370;-0.486;2023-03-25T02:24:46;99958.47;;;8.13;100.00
71424;BME280;59240;51.370;-0.486;2023-03-25T02:30:29;99949.81;;;8.14;100.00
71424;BME280;59240;51.370;-0.486;2023-03-25T02:38:52;99958.31;;;8.19;100.00
71424;BME280;59240;51.370;-0.486;2023-03-25T02:41:28;99944.75;;;8.08;100.00
71424;BME280;59240;51.370;-0.486;2023-03-25T02:44:04;99962.72;;;8.17;100.00
71424;BME280;59240;51.370;-0.486;2023-03-25T02:46:34;99951.53;;;8.14;100.00
71424;BME280;59240;51.370;-0.486;2023-03-25T02:49:07;99944.75;;;8.08;100.00
71424;BME280;59240;51.370;-0.486;2023-03-25T02:51:55;99954.94;;;8.17;100.00
71424;BME280;59240;51.370;-0.486;2023-03-25T02:54:27;99965.31;;;8.16;100.00
71424;BME280;59240;51.370;-0.486;2023-03-25T02:56:56;99955.19;;;8.07;100.00
71424;BME280;59240;51.370;-0.486;2023-03-25T02:59:25;99963.66;;;8.13;100.00
71424;BME280;59240;51.370;-0.486;2023-03-25T03:01:56;99921.16;;;7.85;100.00
71424;BME280;59240;51.370;-0.486;2023-03-25T03:04:24;99951.84;;;8.03;100.00
71424;BME280;59240;51.370;-0.486;2023-03-25T03:06:53;99973.38;;;8.05;100.00
71424;BME280;59240;51.370;-0.486;2023-03-25T03:09:45;99973.31;;;8.08;100.00
71424;BME280;59240;51.370;-0.486;2023-03-25T03:12:41;99975.94;;;8.07;100.00
71424;BME280;59240;51.370;-0.486;2023-03-25T03:24:34;99971.75;;;8.01;100.00
71424;BME280;59240;51.370;-0.486;2023-03-25T03:27:11;99976.03;;;8.02;100.00
71424;BME280;59240;51.370;-0.486;2023-03-25T03:29:44;99990.75;;;8.03;100.00
71424;BME280;59240;51.370;-0.486;2023-03-25T03:32:19;99982.97;;;8.03;100.00
71424;BME280;59240;51.370;-0.486;2023-03-25T03:34:51;99955.06;;;7.77;100.00
71424;BME280;59240;51.370;-0.486;2023-03-25T03:37:29;99937.09;;;7.70;100.00
71424;BME280;59240;51.370;-0.486;2023-03-25T03:39:58;99985.75;;;7.94;100.00
71424;BME280;59240;51.370;-0.486;2023-03-25T03:42:36;99988.19;;;8.00;100.00
71424;BME280;59240;51.370;-0.486;2023-03-25T03:45:30;99990.75;;;8.02;100.00
71424;BME280;59240;51.370;-0.486;2023-03-25T03:47:56;99961.00;;;7.81;100.00
71424;BME280;59240;51.370;-0.486;2023-03-25T03:50:28;99990.97;;;7.92;100.00
71424;BME280;59240;51.370;-0.486;2023-03-25T03:55:39;99997.59;;;8.06;100.00
71424;BME280;59240;51.370;-0.486;2023-03-25T03:58:15;99951.53;;;7.80;100.00
71424;BME280;59240;51.370;-0.486;2023-03-25T04:00:51;99950.78;;;7.75;100.00
71424;BME280;59240;51.370;-0.486;2023-03-25T04:03:49;100004.81;;;7.93;100.00
71424;BME280;59240;51.370;-0.486;2023-03-25T04:06:22;99995.22;;;7.95;100.00
71424;BME280;59240;51.370;-0.486;2023-03-25T04:08:57;99985.88;;;7.89;100.00
71424;BME280;59240;51.370;-0.486;2023-03-25T04:11:31;100012.53;;;7.96;100.00
71424;BME280;59240;51.370;-0.486;2023-03-25T04:14:01;99971.31;;;7.84;100.00
71424;BME280;59240;51.370;-0.486;2023-03-25T04:16:30;99984.16;;;7.88;100.00
71424;BME280;59240;51.370;-0.486;2023-03-25T04:19:02;99963.72;;;7.75;100.00
71424;BME280;59240;51.370;-0.486;2023-03-25T04:21:29;100015.78;;;8.04;100.00
71424;BME280;59240;51.370;-0.486;2023-03-25T04:23:56;99983.38;;;7.85;100.00
71424;BME280;59240;51.370;-0.486;2023-03-25T04:26:27;99973.88;;;7.85;100.00
71424;BME280;59240;51.370;-0.486;2023-03-25T04:29:00;100009.94;;;7.94;100.00
71424;BME280;59240;51.370;-0.486;2023-03-25T04:31:28;99996.31;;;7.86;100.00
71424;BME280;59240;51.370;-0.486;2023-03-25T04:33:58;99995.53;;;7.83;100.00
71424;BME280;59240;51.370;-0.486;2023-03-25T04:36:26;100005.69;;;7.92;100.00
71424;BME280;59240;51.370;-0.486;2023-03-25T04:38:59;99996.50;;;7.79;100.00
71424;BME280;59240;51.370;-0.486;2023-03-25T04:41:26;100021.25;;;7.92;100.00
71424;BME280;59240;51.370;-0.486;2023-03-25T04:43:54;99986.25;;;7.73;100.00
71424;BME280;59240;51.370;-0.486;2023-03-25T04:46:21;100011.81;;;7.89;100.00
71424;BME280;59240;51.370;-0.486;2023-03-25T04:48:48;99973.44;;;7.66;100.00
71424;BME280;59240;51.370;-0.486;2023-03-25T04:51:14;100011.69;;;7.94;100.00
71424;BME280;59240;51.370;-0.486;2023-03-25T04:53:41;100015.13;;;7.94;100.00
71424;BME280;59240;51.370;-0.486;2023-03-25T04:56:12;100009.09;;;7.94;100.00
71424;BME280;59240;51.370;-0.486;2023-03-25T04:58:43;100016.69;;;8.02;100.00
71424;BME280;59240;51.370;-0.486;2023-03-25T05:01:22;100007.97;;;8.06;100.00
71424;BME280;59240;51.370;-0.486;2023-03-25T05:03:49;100001.91;;;8.05;100.00
71424;BME280;59240;51.370;-0.486;2023-03-25T05:06:16;100034.22;;;8.28;100.00
71424;BME280;59240;51.370;-0.486;2023-03-25T05:08:43;100006.13;;;8.11;100.00
71424;BME280;59240;51.370;-0.486;2023-03-25T05:11:10;100028.28;;;8.22;100.00
71424;BME280;59240;51.370;-0.486;2023-03-25T05:13:37;100015.31;;;8.22;100.00
71424;BME280;59240;51.370;-0.486;2023-03-25T05:16:05;100015.25;;;8.26;100.00
71424;BME280;59240;51.370;-0.486;2023-03-25T05:18:32;100025.38;;;8.38;100.00
71424;BME280;59240;51.370;-0.486;2023-03-25T05:20:58;100009.97;;;8.29;100.00
71424;BME280;59240;51.370;-0.486;2023-03-25T05:23:28;100030.22;;;8.50;100.00
71424;BME280;59240;51.370;-0.486;2023-03-25T05:25:56;100026.78;;;8.51;100.00
71424;BME280;59240;51.370;-0.486;2023-03-25T05:28:23;100020.00;;;8.44;100.00
71424;BME280;59240;51.370;-0.486;2023-03-25T05:30:50;100031.97;;;8.51;100.00
71424;BME280;59240;51.370;-0.486;2023-03-25T05:33:20;100057.47;;;8.68;100.00
71424;BME280;59240;51.370;-0.486;2023-03-25T05:35:47;100018.09;;;8.52;100.00
71424;BME280;59240;51.370;-0.486;2023-03-25T05:38:17;100041.13;;;8.64;100.00
71424;BME280;59240;51.370;-0.486;2023-03-25T05:40:45;100035.22;;;8.59;100.00
71424;BME280;59240;51.370;-0.486;2023-03-25T05:43:13;100056.22;;;8.83;100.00
71424;BME280;59240;51.370;-0.486;2023-03-25T05:45:41;99995.63;;;8.51;100.00
71424;BME280;59240;51.370;-0.486;2023-03-25T05:48:08;100034.97;;;8.68;100.00
71424;BME280;59240;51.370;-0.486;2023-03-25T05:50:36;100022.19;;;8.61;100.00
71424;BME280;59240;51.370;-0.486;2023-03-25T05:53:03;100006.22;;;8.42;100.00
71424;BME280;59240;51.370;-0.486;2023-03-25T05:55:30;100017.16;;;8.55;100.00
71424;BME280;59240;51.370;-0.486;2023-03-25T05:57:57;100057.31;;;8.74;100.00
71424;BME280;59240;51.370;-0.486;2023-03-25T06:00:24;100068.63;;;8.73;100.00
71424;BME280;59240;51.370;-0.486;2023-03-25T06:02:51;100062.78;;;8.63;100.00
71424;BME280;59240;51.370;-0.486;2023-03-25T06:05:18;100066.97;;;8.69;100.00
71424;BME280;59240;51.370;-0.486;2023-03-25T06:07:49;100120.69;;;9.01;100.00
71424;BME280;59240;51.370;-0.486;2023-03-25T06:10:39;100042.22;;;8.56;100.00
71424;BME280;59240;51.370;-0.486;2023-03-25T06:13:06;100096.72;;;8.90;100.00
71424;BME280;59240;51.370;-0.486;2023-03-25T06:15:47;100044.69;;;8.60;100.00
71424;BME280;59240;51.370;-0.486;2023-03-25T06:18:24;100095.03;;;8.89;100.00
71424;BME280;59240;51.370;-0.486;2023-03-25T06:20:58;100069.22;;;8.83;100.00
71424;BME280;59240;51.370;-0.486;2023-03-25T06:23:27;100089.75;;;8.92;100.00
71424;BME280;59240;51.370;-0.486;2023-03-25T06:25:58;100086.34;;;8.90;100.00
71424;BME280;59240;51.370;-0.486;2023-03-25T06:28:32;100089.63;;;8.96;100.00
71424;BME280;59240;51.370;-0.486;2023-03-25T06:30:59;100052.25;;;8.69;100.00
71424;BME280;59240;51.370;-0.486;2023-03-25T06:33:36;100035.28;;;8.56;100.00
71424;BME280;59240;51.370;-0.486;2023-03-25T06:36:11;100058.47;;;8.62;100.00
71424;BME280;59240;51.370;-0.486;2023-03-25T06:38:38;100087.63;;;8.73;100.00
71424;BME280;59240;51.370;-0.486;2023-03-25T06:41:06;100110.34;;;8.99;100.00
71424;BME280;59240;51.370;-0.486;2023-03-25T06:43:33;100074.56;;;8.76;100.00
71424;BME280;59240;51.370;-0.486;2023-03-25T06:46:02;100094.78;;;8.98;100.00
71424;BME280;59240;51.370;-0.486;2023-03-25T06:48:29;100095.84;;;8.91;100.00
71424;BME280;59240;51.370;-0.486;2023-03-25T06:50:56;100103.47;;;8.97;100.00
71424;BME280;59240;51.370;-0.486;2023-03-25T06:53:25;100070.84;;;8.87;100.00
71424;BME280;59240;51.370;-0.486;2023-03-25T06:55:52;100141.66;;;9.26;100.00
71424;BME280;59240;51.370;-0.486;2023-03-25T06:58:21;100063.97;;;8.86;100.00
71424;BME280;59240;51.370;-0.486;2023-03-25T07:00:52;100087.97;;;8.94;100.00
71424;BME280;59240;51.370;-0.486;2023-03-25T07:03:20;100116.78;;;9.17;100.00
71424;BME280;59240;51.370;-0.486;2023-03-25T07:05:47;100123.63;;;9.21;99.37
71424;BME280;59240;51.370;-0.486;2023-03-25T07:08:20;100165.38;;;9.46;100.00
71424;BME280;59240;51.370;-0.486;2023-03-25T07:10:47;100112.50;;;9.16;99.69
71424;BME280;59240;51.370;-0.486;2023-03-25T07:13:14;100156.94;;;9.38;100.00
71424;BME280;59240;51.370;-0.486;2023-03-25T07:15:41;100149.41;;;9.29;100.00
71424;BME280;59240;51.370;-0.486;2023-03-25T07:18:08;100161.53;;;9.28;99.93
71424;BME280;59240;51.370;-0.486;2023-03-25T07:20:45;100150.72;;;9.13;100.00
71424;BME280;59240;51.370;-0.486;2023-03-25T07:23:12;100194.59;;;9.23;100.00
71424;BME280;59240;51.370;-0.486;2023-03-25T07:25:38;100184.19;;;9.23;96.90
71424;BME280;59240;51.370;-0.486;2023-03-25T07:28:05;100153.63;;;9.00;98.31
71424;BME280;59240;51.370;-0.486;2023-03-25T07:30:35;100185.34;;;9.13;97.31
71424;BME280;59240;51.370;-0.486;2023-03-25T07:33:02;100198.00;;;9.25;97.33
71424;BME280;59240;51.370;-0.486;2023-03-25T07:35:29;100190.28;;;9.22;100.00
71424;BME280;59240;51.370;-0.486;2023-03-25T07:37:56;100132.19;;;8.91;99.63
71424;BME280;59240;51.370;-0.486;2023-03-25T07:40:22;100183.44;;;9.20;98.13
71424;BME280;59240;51.370;-0.486;2023-03-25T07:42:49;100164.38;;;9.19;98.10
71424;BME280;59240;51.370;-0.486;2023-03-25T07:45:16;100163.50;;;9.20;99.64
71424;BME280;59240;51.370;-0.486;2023-03-25T07:47:54;100199.66;;;9.60;100.00
71424;BME280;59240;51.370;-0.486;2023-03-25T07:50:22;100207.44;;;9.60;96.80
71424;BME280;59240;51.370;-0.486;2023-03-25T07:52:53;100205.38;;;9.73;100.00
71424;BME280;59240;51.370;-0.486;2023-03-25T07:55:22;100159.84;;;9.58;98.68
71424;BME280;59240;51.370;-0.486;2023-03-25T07:57:48;100169.19;;;9.66;99.27
71424;BME280;59240;51.370;-0.486;2023-03-25T08:00:15;100143.66;;;9.49;97.89
71424;BME280;59240;51.370;-0.486;2023-03-25T08:02:42;100187.16;;;9.73;93.93
71424;BME280;59240;51.370;-0.486;2023-03-25T08:05:09;100196.56;;;9.79;98.03
71424;BME280;59240;51.370;-0.486;2023-03-25T08:07:51;100221.38;;;9.91;96.67
71424;BME280;59240;51.370;-0.486;2023-03-25T08:10:18;100229.91;;;9.96;99.58
71424;BME280;59240;51.370;-0.486;2023-03-25T08:12:45;100184.56;;;9.73;95.83
71424;BME280;59240;51.370;-0.486;2023-03-25T08:15:18;100205.22;;;9.79;98.20
71424;BME280;59240;51.370;-0.486;2023-03-25T08:17:47;100170.19;;;9.62;97.64
71424;BME280;59240;51.370;-0.486;2023-03-25T08:20:14;100213.13;;;10.06;95.78
71424;BME280;59240;51.370;-0.486;2023-03-25T08:22:43;100223.25;;;10.15;97.88
71424;BME280;59240;51.370;-0.486;2023-03-25T08:25:13;100226.78;;;10.14;96.01
71424;BME280;59240;51.370;-0.486;2023-03-25T08:27:43;100249.34;;;10.45;97.95
71424;BME280;59240;51.370;-0.486;2023-03-25T08:30:39;100189.31;;;10.20;97.13
71424;BME280;59240;51.370;-0.486;2023-03-25T08:33:07;100230.75;;;10.57;96.20
71424;BME280;59240;51.370;-0.486;2023-03-25T08:35:36;100246.16;;;10.63;98.00
71424;BME280;59240;51.370;-0.486;2023-03-25T08:38:03;100241.97;;;10.59;95.91
71424;BME280;59240;51.370;-0.486;2023-03-25T08:40:34;100275.25;;;10.77;96.84
71424;BME280;59240;51.370;-0.486;2023-03-25T08:43:09;100251.47;;;10.60;100.00
71424;BME280;59240;51.370;-0.486;2023-03-25T08:46:04;100277.25;;;10.69;98.26
71424;BME280;59240;51.370;-0.486;2023-03-25T08:49:34;100242.28;;;10.48;96.82
71424;BME280;59240;51.370;-0.486;2023-03-25T08:52:04;100248.09;;;10.58;95.53
71424;BME280;59240;51.370;-0.486;2023-03-25T08:55:15;100222.31;;;10.49;96.48
71424;BME280;59240;51.370;-0.486;2023-03-25T08:58:51;100253.66;;;10.74;100.00
71424;BME280;59240;51.370;-0.486;2023-03-25T09:01:45;100233.88;;;10.68;96.99
71424;BME280;59240;51.370;-0.486;2023-03-25T09:04:18;100246.56;;;10.79;95.43
71424;BME280;59240;51.370;-0.486;2023-03-25T09:06:57;100237.94;;;10.77;99.53
71424;BME280;59240;51.370;-0.486;2023-03-25T09:10:15;100298.94;;;11.26;94.81
71424;BME280;59240;51.370;-0.486;2023-03-25T09:12:57;100303.91;;;11.33;95.15
71424;BME280;59240;51.370;-0.486;2023-03-25T09:15:44;100285.91;;;11.26;97.74
71424;BME280;59240;51.370;-0.486;2023-03-25T09:18:28;100231.94;;;11.01;96.76
71424;BME280;59240;51.370;-0.486;2023-03-25T09:21:03;100289.63;;;11.43;93.86
71424;BME280;59240;51.370;-0.486;2023-03-25T09:23:30;100292.59;;;11.59;94.43
71424;BME280;59240;51.370;-0.486;2023-03-25T09:26:39;100241.56;;;11.26;91.01
71424;BME280;59240;51.370;-0.486;2023-03-25T09:29:11;100321.03;;;11.67;95.81
71424;BME280;59240;51.370;-0.486;2023-03-25T09:31:42;100271.72;;;11.34;94.08
71424;BME280;59240;51.370;-0.486;2023-03-25T09:34:11;100301.38;;;11.57;90.48
71424;BME280;59240;51.370;-0.486;2023-03-25T09:36:41;100292.69;;;11.56;92.82
71424;BME280;59240;51.370;-0.486;2023-03-25T09:39:18;100278.94;;;11.51;90.03
71424;BME280;59240;51.370;-0.486;2023-03-25T09:41:53;100346.13;;;11.97;92.80
71424;BME280;59240;51.370;-0.486;2023-03-25T09:47:57;100350.03;;;12.34;97.26
71424;BME280;59240;51.370;-0.486;2023-03-25T09:53:46;100300.09;;;12.43;94.48
71424;BME280;59240;51.370;-0.486;2023-03-25T09:56:27;100338.13;;;12.74;92.92
71424;BME280;59240;51.370;-0.486;2023-03-25T09:59:12;100365.06;;;13.21;97.88
71424;BME280;59240;51.370;-0.486;2023-03-25T10:20:50;100389.69;;;14.02;100.00
71424;BME280;59240;51.370;-0.486;2023-03-25T10:23:37;100388.88;;;14.00;90.58
71424;BME280;59240;51.370;-0.486;2023-03-25T10:26:24;100377.59;;;13.57;92.01
71424;BME280;59240;51.370;-0.486;2023-03-25T10:29:28;100366.22;;;13.36;83.77
71424;BME280;59240;51.370;-0.486;2023-03-25T10:32:06;100388.44;;;13.48;86.80
71424;BME280;59240;51.370;-0.486;2023-03-25T10:34:47;100413.44;;;13.55;97.03
71424;BME280;59240;51.370;-0.486;2023-03-25T10:37:44;100445.81;;;13.96;90.11
71424;BME280;59240;51.370;-0.486;2023-03-25T10:43:40;100426.41;;;14.20;90.17
71424;BME280;59240;51.370;-0.486;2023-03-25T10:46:30;100453.44;;;14.43;88.08
71424;BME280;59240;51.370;-0.486;2023-03-25T10:49:32;100366.97;;;14.22;87.96
71424;BME280;59240;51.370;-0.486;2023-03-25T10:55:00;100418.31;;;14.47;83.87
71424;BME280;59240;51.370;-0.486;2023-03-25T10:57:29;100476.94;;;14.85;87.93
71424;BME280;59240;51.370;-0.486;2023-03-25T11:00:15;100484.63;;;14.90;95.02
71424;BME280;59240;51.370;-0.486;2023-03-25T11:02:48;100455.31;;;14.80;86.64
71424;BME280;59240;51.370;-0.486;2023-03-25T11:05:27;100417.84;;;14.37;87.47
71424;BME280;59240;51.370;-0.486;2023-03-25T11:08:00;100410.69;;;14.41;78.77
71424;BME280;59240;51.370;-0.486;2023-03-25T11:10:53;100420.91;;;14.27;79.79
71424;BME280;59240;51.370;-0.486;2023-03-25T11:16:45;100444.78;;;14.00;93.38
71424;BME280;59240;51.370;-0.486;2023-03-25T11:19:30;100429.56;;;13.88;96.56
71424;BME280;59240;51.370;-0.486;2023-03-25T11:22:09;100485.66;;;14.24;87.54
71424;BME280;59240;51.370;-0.486;2023-03-25T11:24:49;100495.19;;;14.05;83.67
71424;BME280;59240;51.370;-0.486;2023-03-25T11:27:26;100435.22;;;13.55;84.34
71424;BME280;59240;51.370;-0.486;2023-03-25T11:29:58;100463.66;;;13.64;86.43
71424;BME280;59240;51.370;-0.486;2023-03-25T11:32:38;100495.06;;;13.64;82.01
71424;BME280;59240;51.370;-0.486;2023-03-25T11:35:21;100421.63;;;13.24;90.25
71424;BME280;59240;51.370;-0.486;2023-03-25T11:41:12;100513.16;;;13.71;87.05
71424;BME280;59240;51.370;-0.486;2023-03-25T11:43:39;100494.44;;;13.58;81.89
71424;BME280;59240;51.370;-0.486;2023-03-25T11:46:12;100488.97;;;13.42;80.94
71424;BME280;59240;51.370;-0.486;2023-03-25T11:48:48;100464.25;;;13.27;85.27
71424;BME280;59240;51.370;-0.486;2023-03-25T11:51:41;100517.38;;;13.75;91.16
71424;BME280;59240;51.370;-0.486;2023-03-25T11:54:11;100497.97;;;13.79;89.06
71424;BME280;59240;51.370;-0.486;2023-03-25T11:56:43;100511.81;;;14.04;81.83
71424;BME280;59240;51.370;-0.486;2023-03-25T11:59:37;100476.00;;;13.83;87.73
71424;BME280;59240;51.370;-0.486;2023-03-25T12:02:43;100528.06;;;14.12;84.95
71424;BME280;59240;51.370;-0.486;2023-03-25T12:05:13;100456.38;;;13.73;83.07
71424;BME280;59240;51.370;-0.486;2023-03-25T12:07:55;100493.72;;;13.76;83.74
71424;BME280;59240;51.370;-0.486;2023-03-25T12:10:46;100525.28;;;13.95;93.58
71424;BME280;59240;51.370;-0.486;2023-03-25T12:13:34;100482.66;;;13.69;93.94
71424;BME280;59240;51.370;-0.486;2023-03-25T12:16:14;100531.69;;;13.88;76.79
71424;BME280;59240;51.370;-0.486;2023-03-25T12:42:52;100457.16;;;13.75;95.91
71424;BME280;59240;51.370;-0.486;2023-03-25T12:51:47;100530.78;;;14.73;78.99
71424;BME280;59240;51.370;-0.486;2023-03-25T13:00:21;100537.06;;;15.29;78.39
71424;BME280;59240;51.370;-0.486;2023-03-25T13:13:16;100453.72;;;15.15;81.10
71424;BME280;59240;51.370;-0.486;2023-03-25T13:16:16;100507.34;;;15.28;83.90
71424;BME280;59240;51.370;-0.486;2023-03-25T13:18:59;100483.94;;;15.05;75.20
71424;BME280;59240;51.370;-0.486;2023-03-25T13:22:48;100539.94;;;15.62;92.98
71424;BME280;59240;51.370;-0.486;2023-03-25T13:25:30;100482.09;;;15.45;79.72
71424;BME280;59240;51.370;-0.486;2023-03-25T13:28:27;100483.66;;;15.68;80.44
71424;BME280;59240;51.370;-0.486;2023-03-25T13:31:09;100507.22;;;15.69;78.53
71424;BME280;59240;51.370;-0.486;2023-03-25T13:39:59;100557.56;;;16.15;89.73
71424;BME280;59240;51.370;-0.486;2023-03-25T13:43:04;100485.72;;;15.97;86.57
71424;BME280;59240;51.370;-0.486;2023-03-25T13:46:08;100559.13;;;16.54;85.38
71424;BME280;59240;51.370;-0.486;2023-03-25T13:48:55;100523.72;;;16.44;80.52
71424;BME280;59240;51.370;-0.486;2023-03-25T13:51:29;100508.56;;;16.49;73.20
71424;BME280;59240;51.370;-0.486;2023-03-25T13:54:34;100550.19;;;16.92;84.57
71424;BME280;59240;51.370;-0.486;2023-03-25T13:58:01;100546.63;;;16.93;64.46
71424;BME280;59240;51.370;-0.486;2023-03-25T14:10:45;100519.22;;;16.46;70.90
71424;BME280;59240;51.370;-0.486;2023-03-25T14:13:42;100478.16;;;16.08;68.90
71424;BME280;59240;51.370;-0.486;2023-03-25T14:24:04;100492.03;;;16.29;60.02
71424;BME280;59240;51.370;-0.486;2023-03-25T14:26:33;100532.84;;;16.54;66.42
71424;BME280;59240;51.370;-0.486;2023-03-25T14:29:42;100471.00;;;16.29;65.52
71424;BME280;59240;51.370;-0.486;2023-03-25T14:34:49;100532.69;;;16.57;59.65
71424;BME280;59240;51.370;-0.486;2023-03-25T14:39:59;100557.09;;;16.24;57.90
71424;BME280;59240;51.370;-0.486;2023-03-25T14:42:42;100521.28;;;16.04;60.01
71424;BME280;59240;51.370;-0.486;2023-03-25T14:56:54;100510.31;;;15.77;65.08
71424;BME280;59240;51.370;-0.486;2023-03-25T14:59:33;100501.97;;;15.69;53.23
71424;BME280;59240;51.370;-0.486;2023-03-25T15:02:18;100572.03;;;15.88;60.21
71424;BME280;59240;51.370;-0.486;2023-03-25T15:05:19;100533.16;;;15.56;64.10
71424;BME280;59240;51.370;-0.486;2023-03-25T15:08:40;100600.63;;;15.94;66.57
71424;BME280;59240;51.370;-0.486;2023-03-25T15:12:08;100523.78;;;15.51;62.86
71424;BME280;59240;51.370;-0.486;2023-03-25T15:14:54;100563.00;;;15.74;55.37
71424;BME280;59240;51.370;-0.486;2023-03-25T15:17:46;100590.97;;;15.75;52.81
71424;BME280;59240;51.370;-0.486;2023-03-25T15:25:48;100546.13;;;15.22;52.30
71424;BME280;59240;51.370;-0.486;2023-03-25T15:34:16;100573.63;;;15.13;56.05
71424;BME280;59240;51.370;-0.486;2023-03-25T15:43:25;100610.63;;;15.27;57.02
71424;BME280;59240;51.370;-0.486;2023-03-25T15:47:19;100590.38;;;15.11;54.44
71424;BME280;59240;51.370;-0.486;2023-03-25T15:50:10;100617.19;;;15.17;62.52
71424;BME280;59240;51.370;-0.486;2023-03-25T15:55:36;100579.16;;;14.87;61.23
71424;BME280;59240;51.370;-0.486;2023-03-25T15:58:11;100575.16;;;14.78;63.81
71424;BME280;59240;51.370;-0.486;2023-03-25T16:01:20;100575.34;;;14.73;61.68
71424;BME280;59240;51.370;-0.486;2023-03-25T16:04:04;100622.44;;;14.97;60.48
71424;BME280;59240;51.370;-0.486;2023-03-25T16:06:40;100553.03;;;14.43;57.43
71424;BME280;59240;51.370;-0.486;2023-03-25T16:09:26;100535.25;;;14.29;62.22
71424;BME280;59240;51.370;-0.486;2023-03-25T16:12:02;100561.00;;;14.40;58.53
71424;BME280;59240;51.370;-0.486;2023-03-25T16:15:05;100535.25;;;14.29;66.23
71424;BME280;59240;51.370;-0.486;2023-03-25T16:18:09;100577.16;;;14.51;59.73
71424;BME280;59240;51.370;-0.486;2023-03-25T16:20:49;100551.56;;;14.36;60.96
71424;BME280;59240;51.370;-0.486;2023-03-25T16:23:22;100544.03;;;14.28;59.49
71424;BME280;59240;51.370;-0.486;2023-03-25T16:25:50;100572.06;;;14.48;59.92